Time,TemperatureF,DewpointF,PressureIn,WindDirection,WindDirectionDegrees,WindSpeedMPH,WindSpeedGustMPH,Humidity,HourlyPrecipIn,Conditions,Clouds,dailyrainin,SoftwareType,DateUTC
2013-02-15 00:02:00,32.0,31.0,29.83,SE,146,0.0,0.0,97,0.00,,,0.00,,2013-02-15 05:02:00,
2013-02-15 00:12:00,32.0,31.0,29.83,SE,146,0.0,0.0,97,0.00,,,0.00,,2013-02-15 05:12:00,
2013-02-15 00:22:00,31.0,31.0,29.82,SE,146,0.0,0.0,98,0.00,,,0.00,,2013-02-15 05:22:00,
2013-02-15 00:32:00,31.0,31.0,29.81,SE,146,0.0,0.0,98,0.00,,,0.00,,2013-02-15 05:32:00,
2013-02-15 00:42:00,31.0,31.0,29.81,SE,146,0.0,0.0,98,0.00,,,0.00,,2013-02-15 05:42:00,
2013-02-15 00:52:00,31.0,31.0,29.81,SE,146,0.0,0.0,98,0.00,,,0.00,,2013-02-15 05:52:00,
2013-02-15 01:02:00,31.0,31.0,29.80,SE,146,0.0,0.0,98,0.00,,,0.00,,2013-02-15 06:02:00,
2013-02-15 01:11:00,32.0,32.0,29.80,SE,146,0.0,0.0,99,0.00,,,0.00,,2013-02-15 06:11:00,
2013-02-15 01:22:00,32.0,32.0,29.80,SE,146,0.0,0.0,99,0.00,,,0.00,,2013-02-15 06:22:00,
2013-02-15 01:32:00,32.0,32.0,29.79,SE,146,0.0,0.0,99,0.00,,,0.00,,2013-02-15 06:32:00,
2013-02-15 01:42:00,32.0,32.0,29.79,SE,146,0.0,0.0,99,0.00,,,0.00,,2013-02-15 06:42:00,
2013-02-15 01:52:00,32.0,32.0,29.79,SE,146,0.0,0.0,99,0.00,,,0.00,,2013-02-15 06:52:00,
2013-02-15 02:01:00,32.0,32.0,29.78,SE,146,0.0,0.0,99,0.00,,,0.00,,2013-02-15 07:01:00,
2013-02-15 02:11:00,32.0,32.0,29.78,SE,146,0.0,0.0,99,0.00,,,0.00,,2013-02-15 07:11:00,
2013-02-15 02:21:00,32.0,32.0,29.77,SE,146,0.0,0.0,99,0.00,,,0.00,,2013-02-15 07:21:00,
2013-02-15 02:32:00,32.0,32.0,29.77,SE,146,0.0,0.0,99,0.00,,,0.00,,2013-02-15 07:32:00,
2013-02-15 02:42:00,32.0,32.0,29.77,SE,146,0.0,0.0,99,0.00,,,0.00,,2013-02-15 07:42:00,
2013-02-15 02:52:00,32.0,32.0,29.77,SE,146,0.0,0.0,99,0.00,,,0.00,,2013-02-15 07:52:00,
2013-02-15 03:01:00,32.0,32.0,29.77,SE,146,0.0,0.0,99,0.00,,,0.00,,2013-02-15 08:01:00,
2013-02-15 03:11:00,33.0,33.0,29.76,ESE,107,0.0,1.0,100,0.00,,,0.00,,2013-02-15 08:11:00,
2013-02-15 03:21:00,33.0,33.0,29.76,ESE,107,0.0,1.0,100,0.00,,,0.00,,2013-02-15 08:21:00,
2013-02-15 03:32:00,33.0,33.0,29.75,South,173,0.0,0.0,100,0.00,,,0.00,,2013-02-15 08:32:00,
2013-02-15 03:42:00,33.0,33.0,29.75,South,173,0.0,0.0,100,0.00,,,0.00,,2013-02-15 08:42:00,
2013-02-15 03:53:00,33.0,33.0,29.75,South,173,0.0,0.0,100,0.00,,,0.00,,2013-02-15 08:53:00,
2013-02-15 04:02:00,34.0,34.0,29.75,East,90,0.0,2.0,100,0.00,,,0.00,,2013-02-15 09:02:00,
2013-02-15 04:12:00,34.0,34.0,29.75,East,90,0.0,2.0,100,0.00,,,0.00,,2013-02-15 09:12:00,
2013-02-15 04:21:00,34.0,34.0,29.75,SW,217,0.0,0.0,100,0.00,,,0.00,,2013-02-15 09:21:00,
2013-02-15 04:32:00,34.0,34.0,29.74,ESE,118,0.0,1.0,100,0.00,,,0.00,,2013-02-15 09:32:00,
2013-02-15 04:42:00,34.0,34.0,29.74,ESE,118,0.0,1.0,100,0.00,,,0.00,,2013-02-15 09:42:00,
2013-02-15 04:52:00,34.0,34.0,29.74,ESE,118,0.0,1.0,100,0.00,,,0.00,,2013-02-15 09:52:00,
2013-02-15 05:01:00,35.0,35.0,29.74,ESE,110,0.0,2.0,100,0.00,,,0.00,,2013-02-15 10:01:00,
2013-02-15 05:11:00,35.0,35.0,29.74,ESE,110,0.0,2.0,100,0.00,,,0.00,,2013-02-15 10:11:00,
2013-02-15 05:20:00,36.0,36.0,29.74,WSW,254,6.0,6.0,100,0.00,,,0.00,,2013-02-15 10:20:00,
2013-02-15 05:21:00,35.0,35.0,29.74,SSE,153,0.0,1.0,100,0.00,,,0.00,,2013-02-15 10:21:00,
2013-02-15 05:32:00,36.0,36.0,29.74,WSW,254,6.0,6.0,100,0.00,,,0.00,,2013-02-15 10:32:00,
2013-02-15 05:42:00,36.0,36.0,29.74,WSW,254,6.0,6.0,100,0.00,,,0.00,,2013-02-15 10:42:00,
2013-02-15 05:52:00,36.0,36.0,29.74,WSW,254,6.0,6.0,100,0.00,,,0.00,,2013-02-15 10:52:00,
2013-02-15 06:01:00,36.0,36.0,29.74,WSW,254,6.0,6.0,100,0.00,,,0.00,,2013-02-15 11:01:00,
2013-02-15 06:11:00,36.0,36.0,29.74,WSW,254,6.0,6.0,100,0.00,,,0.00,,2013-02-15 11:11:00,
2013-02-15 06:52:00,36.0,36.0,29.74,SSE,165,3.0,3.0,99,0.00,,,0.00,,2013-02-15 11:52:00,
2013-02-15 07:02:00,36.0,36.0,29.74,SSE,165,3.0,3.0,99,0.00,,,0.00,,2013-02-15 12:02:00,
2013-02-15 07:11:00,36.0,36.0,29.74,SSE,165,3.0,3.0,99,0.00,,,0.00,,2013-02-15 12:11:00,
2013-02-15 07:21:00,36.0,35.0,29.75,SSW,201,4.0,4.0,98,0.00,,,0.00,,2013-02-15 12:21:00,
2013-02-15 07:32:00,36.0,35.0,29.75,West,264,6.0,6.0,96,0.00,,,0.00,,2013-02-15 12:32:00,
2013-02-15 07:42:00,36.0,35.0,29.75,West,264,6.0,6.0,96,0.00,,,0.00,,2013-02-15 12:42:00,
2013-02-15 07:52:00,36.0,35.0,29.75,West,264,6.0,6.0,96,0.00,,,0.00,,2013-02-15 12:52:00,
2013-02-15 08:02:00,36.0,35.0,29.75,SSW,207,0.0,1.0,95,0.00,,,0.00,,2013-02-15 13:02:00,
2013-02-15 08:11:00,37.0,35.0,29.76,West,262,0.0,2.0,92,0.00,,,0.00,,2013-02-15 13:11:00,
2013-02-15 08:22:00,37.0,35.0,29.76,West,262,0.0,2.0,92,0.00,,,0.00,,2013-02-15 13:22:00,
2013-02-15 08:32:00,37.0,34.0,29.76,SSW,204,8.0,8.0,88,0.00,,,0.00,,2013-02-15 13:32:00,
2013-02-15 08:42:00,37.0,34.0,29.76,SSW,204,8.0,8.0,88,0.00,,,0.00,,2013-02-15 13:42:00,
2013-02-15 08:52:00,37.0,34.0,29.76,SSW,204,8.0,8.0,88,0.00,,,0.00,,2013-02-15 13:52:00,
2013-02-15 09:01:00,37.0,33.0,29.77,South,177,9.0,9.0,86,0.00,,,0.00,,2013-02-15 14:01:00,
2013-02-15 09:12:00,37.0,33.0,29.77,South,177,9.0,9.0,86,0.00,,,0.00,,2013-02-15 14:12:00,
2013-02-15 09:21:00,37.0,33.0,29.77,South,177,9.0,9.0,86,0.00,,,0.00,,2013-02-15 14:21:00,
2013-02-15 09:32:00,37.0,34.0,29.78,SE,124,4.0,4.0,88,0.00,,,0.00,,2013-02-15 14:32:00,
2013-02-15 09:42:00,37.0,34.0,29.78,SE,124,4.0,4.0,88,0.00,,,0.00,,2013-02-15 14:42:00,
2013-02-15 09:52:00,37.0,34.0,29.78,SE,124,4.0,4.0,88,0.00,,,0.00,,2013-02-15 14:52:00,
2013-02-15 10:02:00,37.0,34.0,29.78,South,170,6.0,6.0,87,0.00,,,0.00,,2013-02-15 15:02:00,
2013-02-15 10:11:00,37.0,34.0,29.78,South,170,6.0,6.0,87,0.00,,,0.00,,2013-02-15 15:11:00,
2013-02-15 10:21:00,37.0,34.0,29.78,SW,217,2.0,6.0,89,0.00,,,0.00,,2013-02-15 15:21:00,
2013-02-15 10:32:00,37.0,34.0,29.78,SSW,211,5.0,5.0,88,0.00,,,0.00,,2013-02-15 15:32:00,
2013-02-15 10:42:00,37.0,34.0,29.78,SSW,211,5.0,5.0,88,0.00,,,0.00,,2013-02-15 15:42:00,
2013-02-15 10:52:00,37.0,34.0,29.78,SSW,211,5.0,5.0,88,0.00,,,0.00,,2013-02-15 15:52:00,
2013-02-15 11:02:00,37.0,33.0,29.79,West,275,4.0,7.0,86,0.00,,,0.00,,2013-02-15 16:02:00,
2013-02-15 11:11:00,37.0,33.0,29.79,West,275,4.0,7.0,86,0.00,,,0.00,,2013-02-15 16:11:00,
2013-02-15 11:22:00,37.0,33.0,29.80,SSW,193,19.0,19.0,84,0.00,,,0.00,,2013-02-15 16:22:00,
2013-02-15 11:32:00,38.0,33.0,29.80,SE,146,5.0,7.0,83,0.00,,,0.00,,2013-02-15 16:32:00,
2013-02-15 11:42:00,38.0,33.0,29.80,SE,146,5.0,7.0,83,0.00,,,0.00,,2013-02-15 16:42:00,
2013-02-15 11:52:00,38.0,33.0,29.80,SE,146,5.0,7.0,83,0.00,,,0.00,,2013-02-15 16:52:00,
2013-02-15 12:01:00,37.0,33.0,29.80,West,265,6.0,9.0,84,0.00,,,0.00,,2013-02-15 17:01:00,
2013-02-15 12:11:00,37.0,33.0,29.80,South,184,5.0,6.0,84,0.00,,,0.00,,2013-02-15 17:11:00,
2013-02-15 12:21:00,37.0,33.0,29.80,South,184,5.0,6.0,84,0.00,,,0.00,,2013-02-15 17:21:00,
2013-02-15 12:32:00,37.0,34.0,29.81,SSW,210,6.0,6.0,87,0.00,,,0.00,,2013-02-15 17:32:00,
2013-02-15 12:42:00,37.0,34.0,29.81,SSW,210,6.0,6.0,87,0.00,,,0.00,,2013-02-15 17:42:00,
2013-02-15 12:52:00,37.0,34.0,29.81,SSW,210,6.0,6.0,87,0.00,,,0.00,,2013-02-15 17:52:00,
2013-02-15 13:01:00,36.0,33.0,29.81,South,179,6.0,6.0,87,0.00,,,0.00,,2013-02-15 18:01:00,
2013-02-15 13:11:00,36.0,33.0,29.81,South,179,6.0,6.0,87,0.00,,,0.00,,2013-02-15 18:11:00,
2013-02-15 13:21:00,36.0,32.0,29.81,SSW,211,6.0,11.0,86,0.00,,,0.00,,2013-02-15 18:21:00,
2013-02-15 13:32:00,37.0,32.0,29.82,West,269,4.0,6.0,82,0.00,,,0.00,,2013-02-15 18:32:00,
2013-02-15 13:42:00,37.0,32.0,29.82,West,269,4.0,6.0,82,0.00,,,0.00,,2013-02-15 18:42:00,
2013-02-15 13:53:00,37.0,32.0,29.82,West,269,4.0,6.0,82,0.00,,,0.00,,2013-02-15 18:53:00,
2013-02-15 14:01:00,36.0,31.0,29.82,SSW,200,4.0,9.0,82,0.00,,,0.00,,2013-02-15 19:01:00,
2013-02-15 14:11:00,36.0,31.0,29.82,SSW,200,4.0,9.0,82,0.00,,,0.00,,2013-02-15 19:11:00,
2013-02-15 14:22:00,36.0,31.0,29.83,WSW,255,9.0,9.0,81,0.00,,,0.00,,2013-02-15 19:22:00,
2013-02-15 14:32:00,36.0,31.0,29.83,WSW,255,9.0,9.0,81,0.00,,,0.00,,2013-02-15 19:32:00,
2013-02-15 14:42:00,36.0,31.0,29.83,WSW,255,9.0,9.0,81,0.00,,,0.00,,2013-02-15 19:42:00,
2013-02-15 14:52:00,36.0,31.0,29.83,WSW,255,9.0,9.0,81,0.00,,,0.00,,2013-02-15 19:52:00,
2013-02-15 15:01:00,36.0,30.0,29.84,SSW,203,13.0,13.0,79,0.00,,,0.00,,2013-02-15 20:01:00,
2013-02-15 15:11:00,36.0,30.0,29.84,SSW,203,13.0,13.0,79,0.00,,,0.00,,2013-02-15 20:11:00,
2013-02-15 15:22:00,35.0,29.0,29.85,SW,231,4.0,6.0,79,0.00,,,0.00,,2013-02-15 20:22:00,
2013-02-15 15:32:00,35.0,30.0,29.85,South,180,4.0,9.0,82,0.00,,,0.00,,2013-02-15 20:32:00,
2013-02-15 15:42:00,35.0,30.0,29.85,South,180,4.0,9.0,82,0.00,,,0.00,,2013-02-15 20:42:00,
2013-02-15 15:52:00,35.0,30.0,29.85,South,180,4.0,9.0,82,0.00,,,0.00,,2013-02-15 20:52:00,
2013-02-15 16:02:00,35.0,28.0,29.85,WNW,285,4.0,9.0,76,0.00,,,0.00,,2013-02-15 21:02:00,
2013-02-15 16:11:00,35.0,28.0,29.85,WNW,285,4.0,9.0,76,0.00,,,0.00,,2013-02-15 21:11:00,
2013-02-15 16:21:00,35.0,28.0,29.86,SSW,210,6.0,7.0,76,0.00,,,0.00,,2013-02-15 21:21:00,
2013-02-15 16:32:00,34.0,28.0,29.86,WNW,283,9.0,11.0,79,0.00,,,0.00,,2013-02-15 21:32:00,
2013-02-15 16:42:00,34.0,28.0,29.86,WNW,283,9.0,11.0,79,0.00,,,0.00,,2013-02-15 21:42:00,
2013-02-15 16:52:00,34.0,28.0,29.86,WNW,283,9.0,11.0,79,0.00,,,0.00,,2013-02-15 21:52:00,
2013-02-15 17:02:00,34.0,28.0,29.88,ENE,74,2.0,5.0,80,0.00,,,0.00,,2013-02-15 22:02:00,
2013-02-15 17:11:00,33.0,27.0,29.88,WSW,251,5.0,7.0,79,0.00,,,0.00,,2013-02-15 22:11:00,
2013-02-15 17:22:00,33.0,27.0,29.88,WSW,251,5.0,7.0,79,0.00,,,0.00,,2013-02-15 22:22:00,
2013-02-15 17:32:00,33.0,27.0,29.88,WSW,251,5.0,7.0,79,0.00,,,0.00,,2013-02-15 22:32:00,
2013-02-15 17:40:00,33.0,28.0,29.90,SE,134,0.0,4.0,80,0.00,,,0.00,,2013-02-15 22:40:00,
2013-02-15 17:42:00,33.0,27.0,29.88,WSW,251,5.0,7.0,79,0.00,,,0.00,,2013-02-15 22:42:00,
2013-02-15 17:52:00,33.0,27.0,29.88,WSW,251,5.0,7.0,79,0.00,,,0.00,,2013-02-15 22:52:00,
2013-02-15 18:02:00,33.0,28.0,29.90,SE,134,0.0,4.0,80,0.00,,,0.00,,2013-02-15 23:02:00,
2013-02-15 18:11:00,33.0,28.0,29.90,SE,134,0.0,4.0,80,0.00,,,0.00,,2013-02-15 23:11:00,
2013-02-15 18:21:00,33.0,28.0,29.90,SE,134,0.0,4.0,80,0.00,,,0.00,,2013-02-15 23:21:00,
2013-02-15 18:32:00,33.0,28.0,29.90,SE,134,0.0,4.0,80,0.00,,,0.00,,2013-02-15 23:32:00,
2013-02-15 19:22:00,32.0,27.0,29.92,SW,221,11.0,11.0,81,0.00,,,0.00,,2013-02-16 00:22:00,
2013-02-15 19:32:00,32.0,27.0,29.92,SW,221,11.0,11.0,81,0.00,,,0.00,,2013-02-16 00:32:00,
2013-02-15 19:42:00,32.0,27.0,29.92,SW,221,11.0,11.0,81,0.00,,,0.00,,2013-02-16 00:42:00,
2013-02-15 19:52:00,31.0,26.0,29.92,South,189,7.0,7.0,82,0.00,,,0.00,,2013-02-16 00:52:00,
2013-02-15 20:02:00,31.0,26.0,29.92,SSW,206,4.0,6.0,82,0.00,,,0.00,,2013-02-16 01:02:00,
2013-02-15 20:11:00,31.0,26.0,29.92,SSW,206,4.0,6.0,82,0.00,,,0.00,,2013-02-16 01:11:00,
2013-02-15 20:21:00,31.0,26.0,29.94,SSE,165,1.0,5.0,82,0.00,,,0.00,,2013-02-16 01:21:00,
2013-02-15 20:32:00,31.0,26.0,29.95,WSW,252,6.0,6.0,83,0.00,,,0.00,,2013-02-16 01:32:00,
2013-02-15 20:42:00,31.0,26.0,29.95,WSW,252,6.0,6.0,83,0.00,,,0.00,,2013-02-16 01:42:00,
2013-02-15 20:52:00,31.0,26.0,29.95,WSW,252,6.0,6.0,83,0.00,,,0.00,,2013-02-16 01:52:00,
2013-02-15 21:01:00,30.0,25.0,29.95,West,259,4.0,4.0,82,0.00,,,0.00,,2013-02-16 02:01:00,
2013-02-15 21:11:00,30.0,25.0,29.95,WSW,258,2.0,6.0,83,0.00,,,0.00,,2013-02-16 02:11:00,
2013-02-15 21:21:00,30.0,25.0,29.95,WSW,258,2.0,6.0,83,0.00,,,0.00,,2013-02-16 02:21:00,
2013-02-15 21:32:00,30.0,25.0,29.95,WSW,258,2.0,6.0,83,0.00,,,0.00,,2013-02-16 02:32:00,
2013-02-15 21:42:00,30.0,25.0,29.95,WSW,258,2.0,6.0,83,0.00,,,0.00,,2013-02-16 02:42:00,
2013-02-15 21:52:00,30.0,26.0,29.95,SW,218,0.0,0.0,84,0.00,,,0.00,,2013-02-16 02:52:00,
2013-02-15 22:02:00,29.0,25.0,29.95,SSW,192,1.0,2.0,84,0.00,,,0.00,,2013-02-16 03:02:00,
2013-02-15 22:11:00,28.0,24.0,29.95,WSW,245,3.0,5.0,84,0.00,,,0.00,,2013-02-16 03:11:00,
2013-02-15 22:21:00,28.0,24.0,29.95,WSW,245,3.0,5.0,84,0.00,,,0.00,,2013-02-16 03:21:00,
2013-02-15 22:32:00,28.0,24.0,29.96,South,175,0.0,1.0,85,0.00,,,0.00,,2013-02-16 03:32:00,
2013-02-15 22:40:00,27.0,23.0,29.96,West,276,0.0,1.0,86,0.00,,,0.00,,2013-02-16 03:40:00,
2013-02-15 22:42:00,28.0,24.0,29.96,South,175,0.0,1.0,85,0.00,,,0.00,,2013-02-16 03:42:00,
2013-02-15 22:52:00,28.0,24.0,29.96,South,175,0.0,1.0,85,0.00,,,0.00,,2013-02-16 03:52:00,
2013-02-15 23:01:00,27.0,23.0,29.96,West,276,0.0,1.0,86,0.00,,,0.00,,2013-02-16 04:01:00,
2013-02-15 23:11:00,27.0,23.0,29.96,West,276,0.0,1.0,86,0.00,,,0.00,,2013-02-16 04:11:00,
2013-02-15 23:21:00,27.0,23.0,29.96,West,276,0.0,1.0,86,0.00,,,0.00,,2013-02-16 04:21:00,
2013-02-15 23:32:00,27.0,23.0,29.96,West,276,0.0,1.0,86,0.00,,,0.00,,2013-02-16 04:32:00,
2013-02-15 23:52:00,26.0,23.0,29.97,WNW,292,3.0,5.0,88,0.00,,,0.00,,2013-02-16 04:52:00,